sensor_id;sensor_type;location;lat;lon;timestamp;pressure;altitude;pressure_sealevel;temperature;humidity
74834;BME280;63361;52.384;20.930;2022-12-11T00:01:55;99930.31;;;-1.68;94.20
74834;BME280;63361;52.384;20.930;2022-12-11T00:04:21;99909.25;;;-1.88;94.52
74834;BME280;63361;52.384;20.930;2022-12-11T00:06:46;99924.03;;;-1.74;94.34
74834;BME280;63361;52.384;20.930;2022-12-11T00:09:15;99916.69;;;-1.72;94.46
74834;BME280;63361;52.384;20.930;2022-12-11T00:11:41;99922.19;;;-1.73;94.20
74834;BME280;63361;52.384;20.930;2022-12-11T00:14:06;99915.47;;;-1.69;94.00
74834;BME280;63361;52.384;20.930;2022-12-11T00:16:31;99923.41;;;-1.69;94.19
74834;BME280;63361;52.384;20.930;2022-12-11T00:18:57;99928.63;;;-1.63;94.05
74834;BME280;63361;52.384;20.930;2022-12-11T00:21:22;99924.03;;;-1.81;94.27
74834;BME280;63361;52.384;20.930;2022-12-11T00:23:48;99925.66;;;-1.80;94.24
74834;BME280;63361;52.384;20.930;2022-12-11T00:26:14;99926.69;;;-1.81;94.65
74834;BME280;63361;52.384;20.930;2022-12-11T00:28:41;99943.97;;;-1.71;94.66
74834;BME280;63361;52.384;20.930;2022-12-11T00:31:08;99936.22;;;-1.73;94.99
74834;BME280;63361;52.384;20.930;2022-12-11T00:33:35;99927.13;;;-1.84;95.08
74834;BME280;63361;52.384;20.930;2022-12-11T00:36:00;99930.34;;;-1.82;94.82
74834;BME280;63361;52.384;20.930;2022-12-11T00:38:26;99927.28;;;-1.79;94.95
74834;BME280;63361;52.384;20.930;2022-12-11T00:40:51;99913.72;;;-1.89;94.50
74834;BME280;63361;52.384;20.930;2022-12-11T00:43:17;99933.38;;;-1.71;94.51
74834;BME280;63361;52.384;20.930;2022-12-11T00:45:44;99934.00;;;-1.76;95.02
74834;BME280;63361;52.384;20.930;2022-12-11T00:48:10;99924.84;;;-1.80;94.13
74834;BME280;63361;52.384;20.930;2022-12-11T00:50:37;99930.94;;;-1.73;93.91
74834;BME280;63361;52.384;20.930;2022-12-11T00:53:04;99932.97;;;-1.75;94.63
74834;BME280;63361;52.384;20.930;2022-12-11T00:55:30;99929.53;;;-1.82;94.37
74834;BME280;63361;52.384;20.930;2022-12-11T00:57:56;99906.81;;;-1.90;93.84
74834;BME280;63361;52.384;20.930;2022-12-11T01:00:22;99910.50;;;-1.97;93.83
74834;BME280;63361;52.384;20.930;2022-12-11T01:02:48;99909.91;;;-1.99;93.71
74834;BME280;63361;52.384;20.930;2022-12-11T01:05:15;99928.53;;;-1.81;93.28
74834;BME280;63361;52.384;20.930;2022-12-11T01:07:40;99924.91;;;-1.87;93.65
74834;BME280;63361;52.384;20.930;2022-12-11T01:10:06;99919.84;;;-1.95;93.59
74834;BME280;63361;52.384;20.930;2022-12-11T01:12:58;99935.06;;;-1.84;93.37
74834;BME280;63361;52.384;20.930;2022-12-11T01:15:26;99927.16;;;-1.90;93.74
74834;BME280;63361;52.384;20.930;2022-12-11T01:17:52;99937.09;;;-1.86;93.65
74834;BME280;63361;52.384;20.930;2022-12-11T01:20:18;99913.13;;;-1.91;93.22
74834;BME280;63361;52.384;20.930;2022-12-11T01:22:44;99925.28;;;-1.83;93.15
74834;BME280;63361;52.384;20.930;2022-12-11T01:25:09;99896.09;;;-2.01;93.28
74834;BME280;63361;52.384;20.930;2022-12-11T01:27:36;99918.81;;;-1.87;93.77
74834;BME280;63361;52.384;20.930;2022-12-11T01:30:02;99902.69;;;-1.79;92.17
74834;BME280;63361;52.384;20.930;2022-12-11T01:32:28;99902.97;;;-1.94;92.81
74834;BME280;63361;52.384;20.930;2022-12-11T01:34:53;99887.50;;;-1.90;92.87
74834;BME280;63361;52.384;20.930;2022-12-11T01:37:19;99886.88;;;-1.92;92.74
74834;BME280;63361;52.384;20.930;2022-12-11T01:39:44;99867.81;;;-2.01;92.54
74834;BME280;63361;52.384;20.930;2022-12-11T01:42:15;99868.63;;;-2.00;93.07
74834;BME280;63361;52.384;20.930;2022-12-11T01:47:06;99870.00;;;-1.91;92.94
74834;BME280;63361;52.384;20.930;2022-12-11T01:49:32;99864.53;;;-1.96;92.84
74834;BME280;63361;52.384;20.930;2022-12-11T01:52:02;99862.88;;;-1.91;93.03
74834;BME280;63361;52.384;20.930;2022-12-11T01:54:28;99849.53;;;-2.02;93.28
74834;BME280;63361;52.384;20.930;2022-12-11T01:56:58;99865.38;;;-2.02;94.29
74834;BME280;63361;52.384;20.930;2022-12-11T01:59:27;99866.78;;;-2.00;94.67
74834;BME280;63361;52.384;20.930;2022-12-11T02:01:56;99855.22;;;-2.05;94.26
74834;BME280;63361;52.384;20.930;2022-12-11T02:04:23;99861.06;;;-1.97;94.32
74834;BME280;63361;52.384;20.930;2022-12-11T02:06:50;99847.09;;;-2.04;94.16
74834;BME280;63361;52.384;20.930;2022-12-11T02:09:19;99852.56;;;-1.99;94.97
74834;BME280;63361;52.384;20.930;2022-12-11T02:11:51;99849.53;;;-2.09;94.87
74834;BME280;63361;52.384;20.930;2022-12-11T02:17:06;99842.84;;;-2.12;94.96
74834;BME280;63361;52.384;20.930;2022-12-11T02:25:30;99824.41;;;-2.25;95.70
74834;BME280;63361;52.384;20.930;2022-12-11T02:28:18;99832.25;;;-2.12;95.91
74834;BME280;63361;52.384;20.930;2022-12-11T02:30:51;99834.13;;;-2.19;95.50
74834;BME280;63361;52.384;20.930;2022-12-11T02:33:25;99843.50;;;-2.16;95.97
74834;BME280;63361;52.384;20.930;2022-12-11T02:35:52;99835.38;;;-2.21;96.52
74834;BME280;63361;52.384;20.930;2022-12-11T02:38:31;99837.53;;;-2.12;96.42
74834;BME280;63361;52.384;20.930;2022-12-11T02:40:58;99829.81;;;-2.13;95.85
74834;BME280;63361;52.384;20.930;2022-12-11T02:43:24;99840.59;;;-2.08;96.15
74834;BME280;63361;52.384;20.930;2022-12-11T02:45:52;99834.28;;;-2.07;96.54
74834;BME280;63361;52.384;20.930;2022-12-11T02:48:19;99838.34;;;-2.11;96.13
74834;BME280;63361;52.384;20.930;2022-12-11T02:50:51;99822.16;;;-2.21;96.33
74834;BME280;63361;52.384;20.930;2022-12-11T02:53:21;99812.00;;;-2.24;96.54
74834;BME280;63361;52.384;20.930;2022-12-11T02:55:51;99805.94;;;-2.31;96.31
74834;BME280;63361;52.384;20.930;2022-12-11T02:58:21;99813.44;;;-2.28;96.71
74834;BME280;63361;52.384;20.930;2022-12-11T03:00:48;99824.59;;;-2.26;96.46
74834;BME280;63361;52.384;20.930;2022-12-11T03:03:14;99812.88;;;-2.37;95.96
74834;BME280;63361;52.384;20.930;2022-12-11T03:05:41;99813.28;;;-2.33;96.00
74834;BME280;63361;52.384;20.930;2022-12-11T03:08:06;99812.88;;;-2.37;96.47
74834;BME280;63361;52.384;20.930;2022-12-11T03:10:32;99832.38;;;-2.31;95.47
74834;BME280;63361;52.384;20.930;2022-12-11T03:12:57;99791.59;;;-2.55;95.33
74834;BME280;63361;52.384;20.930;2022-12-11T03:19:08;99817.56;;;-2.39;94.73
74834;BME280;63361;52.384;20.930;2022-12-11T03:21:26;99823.47;;;-2.43;95.44
74834;BME280;63361;52.384;20.930;2022-12-11T03:26:41;99838.28;;;-2.36;95.16
74834;BME280;63361;52.384;20.930;2022-12-11T03:29:35;99833.19;;;-2.31;95.28
74834;BME280;63361;52.384;20.930;2022-12-11T03:32:07;99840.50;;;-2.33;95.39
74834;BME280;63361;52.384;20.930;2022-12-11T03:34:47;99829.38;;;-2.48;96.07
74834;BME280;63361;52.384;20.930;2022-12-11T03:37:15;99822.28;;;-2.54;95.92
74834;BME280;63361;52.384;20.930;2022-12-11T03:39:47;99850.50;;;-2.41;96.00
74834;BME280;63361;52.384;20.930;2022-12-11T03:42:15;99829.59;;;-2.50;96.01
74834;BME280;63361;52.384;20.930;2022-12-11T03:44:43;99824.28;;;-2.43;95.78
74834;BME280;63361;52.384;20.930;2022-12-11T03:47:11;99832.38;;;-2.38;95.92
74834;BME280;63361;52.384;20.930;2022-12-11T03:49:41;99849.25;;;-2.32;95.54
74834;BME280;63361;52.384;20.930;2022-12-11T03:52:09;99833.44;;;-2.45;96.04
74834;BME280;63361;52.384;20.930;2022-12-11T03:54:36;99831.63;;;-2.45;96.33
74834;BME280;63361;52.384;20.930;2022-12-11T03:57:03;99835.06;;;-2.44;96.08
74834;BME280;63361;52.384;20.930;2022-12-11T03:59:30;99839.38;;;-2.57;96.56
74834;BME280;63361;52.384;20.930;2022-12-11T04:01:55;99834.28;;;-2.52;96.12
74834;BME280;63361;52.384;20.930;2022-12-11T04:04:21;99832.03;;;-2.48;96.29
74834;BME280;63361;52.384;20.930;2022-12-11T04:06:46;99814.81;;;-2.70;95.84
74834;BME280;63361;52.384;20.930;2022-12-11T04:09:11;99832.44;;;-2.51;96.03
74834;BME280;63361;52.384;20.930;2022-12-11T04:11:37;99807.91;;;-2.65;96.03
74834;BME280;63361;52.384;20.930;2022-12-11T04:14:09;99825.13;;;-2.49;95.55
74834;BME280;63361;52.384;20.930;2022-12-11T04:16:54;99804.66;;;-2.67;95.66
74834;BME280;63361;52.384;20.930;2022-12-11T04:19:21;99813.00;;;-2.70;96.02
74834;BME280;63361;52.384;20.930;2022-12-11T04:22:06;99796.94;;;-2.75;95.98
74834;BME280;63361;52.384;20.930;2022-12-11T04:25:00;99807.09;;;-2.65;95.52
74834;BME280;63361;52.384;20.930;2022-12-11T04:27:26;99795.94;;;-2.67;94.93
74834;BME280;63361;52.384;20.930;2022-12-11T04:30:13;99796.53;;;-2.72;94.17
74834;BME280;63361;52.384;20.930;2022-12-11T04:32:38;99777.13;;;-2.91;94.67
74834;BME280;63361;52.384;20.930;2022-12-11T04:35:06;99802.03;;;-2.73;94.78
74834;BME280;63361;52.384;20.930;2022-12-11T04:37:32;99793.75;;;-2.84;95.11
74834;BME280;63361;52.384;20.930;2022-12-11T04:39:57;99803.91;;;-2.80;94.96
74834;BME280;63361;52.384;20.930;2022-12-11T04:42:22;99806.53;;;-2.80;95.32
74834;BME280;63361;52.384;20.930;2022-12-11T04:44:48;99813.84;;;-2.76;95.46
74834;BME280;63361;52.384;20.930;2022-12-11T04:47:13;99805.69;;;-2.74;95.48
74834;BME280;63361;52.384;20.930;2022-12-11T04:49:38;99796.19;;;-2.82;95.24
74834;BME280;63361;52.384;20.930;2022-12-11T04:52:04;99806.75;;;-2.82;95.22
74834;BME280;63361;52.384;20.930;2022-12-11T04:54:31;99812.59;;;-2.73;95.28
74834;BME280;63361;52.384;20.930;2022-12-11T04:56:56;99802.47;;;-2.76;95.17
74834;BME280;63361;52.384;20.930;2022-12-11T04:59:22;99791.91;;;-2.83;94.92
74834;BME280;63361;52.384;20.930;2022-12-11T05:01:47;99795.38;;;-2.76;95.21
74834;BME280;63361;52.384;20.930;2022-12-11T05:04:12;99784.19;;;-2.85;95.07
74834;BME280;63361;52.384;20.930;2022-12-11T05:06:38;99787.25;;;-2.81;95.42
74834;BME280;63361;52.384;20.930;2022-12-11T05:09:03;99763.88;;;-2.84;95.08
74834;BME280;63361;52.384;20.930;2022-12-11T05:11:29;99772.22;;;-2.87;95.16
74834;BME280;63361;52.384;20.930;2022-12-11T05:13:54;99765.53;;;-2.90;94.73
74834;BME280;63361;52.384;20.930;2022-12-11T05:16:19;99752.91;;;-2.88;95.23
74834;BME280;63361;52.384;20.930;2022-12-11T05:18:45;99763.28;;;-2.79;94.72
74834;BME280;63361;52.384;20.930;2022-12-11T05:21:13;99756.16;;;-2.86;95.22
74834;BME280;63361;52.384;20.930;2022-12-11T05:23:39;99763.69;;;-2.83;95.21
74834;BME280;63361;52.384;20.930;2022-12-11T05:26:07;99759.00;;;-2.80;95.33
74834;BME280;63361;52.384;20.930;2022-12-11T05:28:35;99750.06;;;-2.86;95.41
74834;BME280;63361;52.384;20.930;2022-12-11T05:31:04;99755.56;;;-2.88;95.63
74834;BME280;63361;52.384;20.930;2022-12-11T05:33:30;99753.09;;;-2.76;94.96
74834;BME280;63361;52.384;20.930;2022-12-11T05:35:56;99738.72;;;-2.87;94.80
74834;BME280;63361;52.384;20.930;2022-12-11T05:38:21;99757.19;;;-2.80;94.90
74834;BME280;63361;52.384;20.930;2022-12-11T05:41:01;99754.75;;;-2.88;95.32
74834;BME280;63361;52.384;20.930;2022-12-11T05:43:28;99744.41;;;-2.90;95.23
74834;BME280;63361;52.384;20.930;2022-12-11T05:45:54;99750.72;;;-2.91;94.68
74834;BME280;63361;52.384;20.930;2022-12-11T05:48:20;99747.69;;;-2.94;95.15
74834;BME280;63361;52.384;20.930;2022-12-11T05:50:58;99749.91;;;-2.98;94.22
74834;BME280;63361;52.384;20.930;2022-12-11T05:53:24;99737.75;;;-3.05;94.80
74834;BME280;63361;52.384;20.930;2022-12-11T05:55:50;99720.69;;;-3.03;93.86
74834;BME280;63361;52.384;20.930;2022-12-11T05:58:16;99728.00;;;-3.05;93.63
74834;BME280;63361;52.384;20.930;2022-12-11T06:00:41;99718.69;;;-3.07;93.87
74834;BME280;63361;52.384;20.930;2022-12-11T06:03:07;99722.75;;;-3.11;94.41
74834;BME280;63361;52.384;20.930;2022-12-11T06:05:37;99717.88;;;-3.14;94.27
74834;BME280;63361;52.384;20.930;2022-12-11T06:08:02;99719.91;;;-3.16;94.50
74834;BME280;63361;52.384;20.930;2022-12-11T06:10:28;99729.47;;;-3.15;94.71
74834;BME280;63361;52.384;20.930;2022-12-11T06:12:53;99722.00;;;-3.25;94.81
74834;BME280;63361;52.384;20.930;2022-12-11T06:15:18;99729.50;;;-3.22;95.19
74834;BME280;63361;52.384;20.930;2022-12-11T06:17:44;99711.03;;;-3.29;95.49
74834;BME280;63361;52.384;20.930;2022-12-11T06:20:09;99720.16;;;-3.25;95.47
74834;BME280;63361;52.384;20.930;2022-12-11T06:22:35;99720.94;;;-3.17;95.36
74834;BME280;63361;52.384;20.930;2022-12-11T06:25:00;99716.09;;;-3.27;95.17
74834;BME280;63361;52.384;20.930;2022-12-11T06:27:25;99727.06;;;-3.24;95.19
74834;BME280;63361;52.384;20.930;2022-12-11T06:29:51;99724.81;;;-3.27;95.17
74834;BME280;63361;52.384;20.930;2022-12-11T06:32:16;99723.22;;;-3.34;95.18
74834;BME280;63361;52.384;20.930;2022-12-11T06:34:41;99719.59;;;-3.40;94.36
74834;BME280;63361;52.384;20.930;2022-12-11T06:37:07;99731.72;;;-3.32;94.63
74834;BME280;63361;52.384;20.930;2022-12-11T06:39:32;99724.22;;;-3.35;93.78
74834;BME280;63361;52.384;20.930;2022-12-11T06:41:57;99729.13;;;-3.39;94.21
74834;BME280;63361;52.384;20.930;2022-12-11T06:44:23;99721.22;;;-3.39;93.92
74834;BME280;63361;52.384;20.930;2022-12-11T06:46:49;99725.28;;;-3.36;93.85
74834;BME280;63361;52.384;20.930;2022-12-11T06:49:14;99723.03;;;-3.39;93.69
74834;BME280;63361;52.384;20.930;2022-12-11T06:51:39;99721.41;;;-3.40;93.98
74834;BME280;63361;52.384;20.930;2022-12-11T06:54:05;99727.28;;;-3.38;93.28
74834;BME280;63361;52.384;20.930;2022-12-11T06:56:32;99706.44;;;-3.53;93.71
74834;BME280;63361;52.384;20.930;2022-12-11T06:58:58;99732.38;;;-3.43;93.72
74834;BME280;63361;52.384;20.930;2022-12-11T07:01:26;99727.50;;;-3.46;93.86
74834;BME280;63361;52.384;20.930;2022-12-11T07:03:56;99742.69;;;-3.35;93.67
74834;BME280;63361;52.384;20.930;2022-12-11T07:06:22;99741.09;;;-3.43;93.93
74834;BME280;63361;52.384;20.930;2022-12-11T07:08:48;99723.03;;;-3.46;93.86
74834;BME280;63361;52.384;20.930;2022-12-11T07:11:15;99722.44;;;-3.48;93.83
74834;BME280;63361;52.384;20.930;2022-12-11T07:13:41;99741.72;;;-3.41;94.49
74834;BME280;63361;52.384;20.930;2022-12-11T07:16:08;99729.72;;;-3.43;93.75
74834;BME280;63361;52.384;20.930;2022-12-11T07:18:41;99715.56;;;-3.56;94.30
74834;BME280;63361;52.384;20.930;2022-12-11T07:21:09;99737.66;;;-3.43;94.38
74834;BME280;63361;52.384;20.930;2022-12-11T07:23:36;99727.53;;;-3.53;94.21
74834;BME280;63361;52.384;20.930;2022-12-11T07:26:07;99718.19;;;-3.56;93.94
74834;BME280;63361;52.384;20.930;2022-12-11T07:28:34;99724.25;;;-3.48;93.82
74834;BME280;63361;52.384;20.930;2022-12-11T07:31:07;99723.25;;;-3.61;93.22
74834;BME280;63361;52.384;20.930;2022-12-11T07:33:33;99723.06;;;-3.59;93.79
74834;BME280;63361;52.384;20.930;2022-12-11T07:36:03;99718.59;;;-3.59;93.71
74834;BME280;63361;52.384;20.930;2022-12-11T07:38:29;99699.56;;;-3.67;93.95
74834;BME280;63361;52.384;20.930;2022-12-11T07:40:55;99713.13;;;-3.57;94.14
74834;BME280;63361;52.384;20.930;2022-12-11T07:43:20;99693.25;;;-3.60;93.93
74834;BME280;63361;52.384;20.930;2022-12-11T07:45:46;99691.22;;;-3.64;93.25
74834;BME280;63361;52.384;20.930;2022-12-11T07:48:11;99689.59;;;-3.65;93.70
74834;BME280;63361;52.384;20.930;2022-12-11T07:50:37;99699.09;;;-3.51;94.14
74834;BME280;63361;52.384;20.930;2022-12-11T07:53:02;99682.69;;;-3.60;94.17
74834;BME280;63361;52.384;20.930;2022-12-11T07:55:28;99685.50;;;-3.48;94.46
74834;BME280;63361;52.384;20.930;2022-12-11T07:57:53;99686.72;;;-3.50;94.27
74834;BME280;63361;52.384;20.930;2022-12-11T08:00:19;99685.53;;;-3.55;94.49
74834;BME280;63361;52.384;20.930;2022-12-11T08:02:44;99689.59;;;-3.52;94.64
74834;BME280;63361;52.384;20.930;2022-12-11T08:05:10;99674.56;;;-3.58;94.67
74834;BME280;63361;52.384;20.930;2022-12-11T08:07:36;99670.75;;;-3.69;94.19
74834;BME280;63361;52.384;20.930;2022-12-11T08:10:03;99671.56;;;-3.68;94.68
74834;BME280;63361;52.384;20.930;2022-12-11T08:12:29;99693.25;;;-3.60;95.28
74834;BME280;63361;52.384;20.930;2022-12-11T08:14:54;99685.72;;;-3.56;95.22
74834;BME280;63361;52.384;20.930;2022-12-11T08:17:19;99685.91;;;-3.51;95.51
74834;BME280;63361;52.384;20.930;2022-12-11T08:19:45;99683.91;;;-3.56;94.63
74834;BME280;63361;52.384;20.930;2022-12-11T08:22:10;99671.34;;;-3.67;94.13
74834;BME280;63361;52.384;20.930;2022-12-11T08:24:37;99652.69;;;-3.72;94.17
74834;BME280;63361;52.384;20.930;2022-12-11T08:27:02;99685.97;;;-3.71;94.73
74834;BME280;63361;52.384;20.930;2022-12-11T08:29:28;99677.25;;;-3.71;94.67
74834;BME280;63361;52.384;20.930;2022-12-11T08:31:53;99676.63;;;-3.67;94.93
74834;BME280;63361;52.384;20.930;2022-12-11T08:34:18;99679.84;;;-3.51;95.31
74834;BME280;63361;52.384;20.930;2022-12-11T08:36:44;99660.97;;;-3.62;94.55
74834;BME280;63361;52.384;20.930;2022-12-11T08:39:09;99648.81;;;-3.63;94.93
74834;BME280;63361;52.384;20.930;2022-12-11T08:41:35;99664.03;;;-3.51;93.27
74834;BME280;63361;52.384;20.930;2022-12-11T08:44:00;99656.31;;;-3.53;94.26
74834;BME280;63361;52.384;20.930;2022-12-11T08:46:27;99670.28;;;-3.39;94.70
74834;BME280;63361;52.384;20.930;2022-12-11T08:48:54;99660.31;;;-3.37;93.58
74834;BME280;63361;52.384;20.930;2022-12-11T08:51:22;99657.25;;;-3.34;93.45
74834;BME280;63361;52.384;20.930;2022-12-11T08:53:49;99648.97;;;-3.38;93.10
74834;BME280;63361;52.384;20.930;2022-12-11T08:56:18;99659.47;;;-3.25;93.69
74834;BME280;63361;52.384;20.930;2022-12-11T08:58:44;99638.22;;;-3.43;93.23
74834;BME280;63361;52.384;20.930;2022-12-11T09:01:18;99638.81;;;-3.41;93.51
74834;BME280;63361;52.384;20.930;2022-12-11T09:03:46;99637.56;;;-3.32;93.31
74834;BME280;63361;52.384;20.930;2022-12-11T09:06:13;99651.16;;;-3.28;92.56
74834;BME280;63361;52.384;20.930;2022-12-11T09:08:40;99647.75;;;-3.42;92.80
74834;BME280;63361;52.384;20.930;2022-12-11T09:11:09;99652.56;;;-3.26;93.72
74834;BME280;63361;52.384;20.930;2022-12-11T09:13:35;99643.63;;;-3.25;92.75
74834;BME280;63361;52.384;20.930;2022-12-11T09:16:03;99640.41;;;-3.27;91.66
74834;BME280;63361;52.384;20.930;2022-12-11T09:18:29;99626.00;;;-3.31;92.29
74834;BME280;63361;52.384;20.930;2022-12-11T09:21:02;99603.09;;;-3.37;92.28
74834;BME280;63361;52.384;20.930;2022-12-11T09:23:27;99626.13;;;-3.19;92.32
74834;BME280;63361;52.384;20.930;2022-12-11T09:25:53;99627.16;;;-3.20;92.32
74834;BME280;63361;52.384;20.930;2022-12-11T09:28:18;99608.69;;;-3.20;92.35
74834;BME280;63361;52.384;20.930;2022-12-11T09:30:44;99601.56;;;-3.13;92.64
74834;BME280;63361;52.384;20.930;2022-12-11T09:33:09;99577.53;;;-3.05;91.24
74834;BME280;63361;52.384;20.930;2022-12-11T09:35:35;99596.69;;;-3.09;91.54
74834;BME280;63361;52.384;20.930;2022-12-11T09:38:00;99586.53;;;-3.12;92.20
74834;BME280;63361;52.384;20.930;2022-12-11T09:40:26;99605.81;;;-3.12;91.61
74834;BME280;63361;52.384;20.930;2022-12-11T09:45:20;99593.44;;;-3.11;92.09
74834;BME280;63361;52.384;20.930;2022-12-11T09:47:50;99576.50;;;-2.97;92.23
74834;BME280;63361;52.384;20.930;2022-12-11T09:50:21;99573.94;;;-3.10;91.85
74834;BME280;63361;52.384;20.930;2022-12-11T09:55:21;99569.09;;;-3.13;91.86
74834;BME280;63361;52.384;20.930;2022-12-11T10:00:34;99554.69;;;-3.17;91.95
74834;BME280;63361;52.384;20.930;2022-12-11T10:03:06;99563.31;;;-2.97;92.62
74834;BME280;63361;52.384;20.930;2022-12-11T10:05:41;99555.56;;;-2.92;91.03
74834;BME280;63361;52.384;20.930;2022-12-11T10:08:22;99556.91;;;-2.83;92.29
74834;BME280;63361;52.384;20.930;2022-12-11T10:11:24;99548.28;;;-2.97;92.23
74834;BME280;63361;52.384;20.930;2022-12-11T10:14:05;99554.47;;;-2.85;91.32
74834;BME280;63361;52.384;20.930;2022-12-11T10:16:39;99549.25;;;-2.91;90.90
74834;BME280;63361;52.384;20.930;2022-12-11T10:19:20;99547.38;;;-2.84;91.42
74834;BME280;63361;52.384;20.930;2022-12-11T10:21:48;99532.56;;;-2.85;91.32
74834;BME280;63361;52.384;20.930;2022-12-11T10:24:37;99538.72;;;-2.91;91.39
74834;BME280;63361;52.384;20.930;2022-12-11T10:27:28;99516.22;;;-3.00;90.22
74834;BME280;63361;52.384;20.930;2022-12-11T10:30:22;99527.41;;;-3.05;91.41
74834;BME280;63361;52.384;20.930;2022-12-11T10:35:28;99523.41;;;-3.14;91.09
74834;BME280;63361;52.384;20.930;2022-12-11T10:38:00;99515.28;;;-3.12;91.61
74834;BME280;63361;52.384;20.930;2022-12-11T10:40:31;99506.72;;;-3.08;91.59
74834;BME280;63361;52.384;20.930;2022-12-11T10:42:58;99514.16;;;-2.98;91.55
74834;BME280;63361;52.384;20.930;2022-12-11T10:45:23;99511.31;;;-2.97;91.38
74834;BME280;63361;52.384;20.930;2022-12-11T10:47:49;99513.66;;;-2.82;91.45
74834;BME280;63361;52.384;20.930;2022-12-11T10:50:24;99497.22;;;-2.84;90.80
74834;BME280;63361;52.384;20.930;2022-12-11T10:52:50;99494.16;;;-2.81;91.63
74834;BME280;63361;52.384;20.930;2022-12-11T10:57:54;99484.91;;;-2.97;89.83
74834;BME280;63361;52.384;20.930;2022-12-11T11:01:01;99481.97;;;-2.82;90.81
74834;BME280;63361;52.384;20.930;2022-12-11T11:03:27;99466.00;;;-2.69;90.54
74834;BME280;63361;52.384;20.930;2022-12-11T11:08:28;99467.94;;;-2.83;91.00
74834;BME280;63361;52.384;20.930;2022-12-11T11:11:00;99459.84;;;-2.88;90.31
74834;BME280;63361;52.384;20.930;2022-12-11T11:13:28;99447.25;;;-3.10;90.24
74834;BME280;63361;52.384;20.930;2022-12-11T11:15:59;99455.28;;;-2.99;91.33
74834;BME280;63361;52.384;20.930;2022-12-11T11:18:26;99457.69;;;-2.91;90.72
74834;BME280;63361;52.384;20.930;2022-12-11T11:20:53;99444.09;;;-2.94;91.21
74834;BME280;63361;52.384;20.930;2022-12-11T11:23:20;99448.13;;;-2.92;91.20
74834;BME280;63361;52.384;20.930;2022-12-11T11:25:57;99442.09;;;-2.99;91.72
74834;BME280;63361;52.384;20.930;2022-12-11T11:28:26;99453.78;;;-2.88;91.58
74834;BME280;63361;52.384;20.930;2022-12-11T11:31:13;99450.66;;;-2.78;92.34
74834;BME280;63361;52.384;20.930;2022-12-11T11:36:24;99427.97;;;-2.86;90.48
74834;BME280;63361;52.384;20.930;2022-12-11T11:39:17;99445.16;;;-2.77;91.95
74834;BME280;63361;52.384;20.930;2022-12-11T11:44:45;99443.16;;;-2.81;92.08
74834;BME280;63361;52.384;20.930;2022-12-11T11:47:25;99436.09;;;-2.63;91.87
74834;BME280;63361;52.384;20.930;2022-12-11T11:49:58;99406.13;;;-2.75;91.54
74834;BME280;63361;52.384;20.930;2022-12-11T11:57:45;99435.25;;;-2.81;90.48
74834;BME280;63361;52.384;20.930;2022-12-11T12:02:45;99428.38;;;-2.89;90.27
74834;BME280;63361;52.384;20.930;2022-12-11T12:05:12;99409.56;;;-2.93;89.83
74834;BME280;63361;52.384;20.930;2022-12-11T12:13:09;99414.97;;;-2.88;90.71
74834;BME280;63361;52.384;20.930;2022-12-11T12:15:50;99423.22;;;-2.77;90.36
74834;BME280;63361;52.384;20.930;2022-12-11T12:26:27;99406.09;;;-3.18;90.22
74834;BME280;63361;52.384;20.930;2022-12-11T12:31:52;99407.31;;;-3.45;89.97
74834;BME280;63361;52.384;20.930;2022-12-11T12:48:30;99392.97;;;-3.25;91.09
74834;BME280;63361;52.384;20.930;2022-12-11T12:50:55;99374.47;;;-3.49;91.24
74834;BME280;63361;52.384;20.930;2022-12-11T12:53:25;99375.13;;;-3.54;91.20
74834;BME280;63361;52.384;20.930;2022-12-11T12:55:52;99373.72;;;-3.57;91.73
74834;BME280;63361;52.384;20.930;2022-12-11T12:58:42;99383.41;;;-3.50;91.76
74834;BME280;63361;52.384;20.930;2022-12-11T13:06:45;99376.91;;;-3.48;90.94
74834;BME280;63361;52.384;20.930;2022-12-11T13:09:30;99372.13;;;-3.58;91.88
74834;BME280;63361;52.384;20.930;2022-12-11T13:11:56;99388.47;;;-3.49;92.02
74834;BME280;63361;52.384;20.930;2022-12-11T13:14:31;99391.63;;;-3.65;91.35
74834;BME280;63361;52.384;20.930;2022-12-11T13:19:44;99385.19;;;-3.69;92.07
74834;BME280;63361;52.384;20.930;2022-12-11T13:24:55;99360.47;;;-3.75;92.06
74834;BME280;63361;52.384;20.930;2022-12-11T13:32:39;99387.38;;;-3.66;92.26
74834;BME280;63361;52.384;20.930;2022-12-11T13:35:06;99391.41;;;-3.64;92.85
74834;BME280;63361;52.384;20.930;2022-12-11T13:37:42;99374.72;;;-3.82;92.57
74834;BME280;63361;52.384;20.930;2022-12-11T13:40:17;99382.91;;;-3.66;92.82
74834;BME280;63361;52.384;20.930;2022-12-11T13:45:22;99373.63;;;-3.68;92.06
74834;BME280;63361;52.384;20.930;2022-12-11T13:47:49;99377.50;;;-3.77;92.14
74834;BME280;63361;52.384;20.930;2022-12-11T13:50:25;99374.28;;;-3.79;91.86
74834;BME280;63361;52.384;20.930;2022-12-11T13:53:00;99371.63;;;-3.79;92.25
74834;BME280;63361;52.384;20.930;2022-12-11T13:55:32;99378.72;;;-3.80;92.15
74834;BME280;63361;52.384;20.930;2022-12-11T13:57:58;99373.22;;;-3.72;91.90
74834;BME280;63361;52.384;20.930;2022-12-11T14:00:26;99362.69;;;-3.72;92.56
74834;BME280;63361;52.384;20.930;2022-12-11T14:02:55;99359.03;;;-3.71;92.00
74834;BME280;63361;52.384;20.930;2022-12-11T14:05:22;99357.06;;;-3.82;91.86
74834;BME280;63361;52.384;20.930;2022-12-11T14:07:50;99379.72;;;-3.74;92.56
74834;BME280;63361;52.384;20.930;2022-12-11T14:10:19;99375.47;;;-3.75;92.93
74834;BME280;63361;52.384;20.930;2022-12-11T14:12:51;99378.72;;;-3.73;92.19
74834;BME280;63361;52.384;20.930;2022-12-11T14:15:17;99366.56;;;-3.81;92.82
74834;BME280;63361;52.384;20.930;2022-12-11T14:17:44;99367.16;;;-3.79;92.39
74834;BME280;63361;52.384;20.930;2022-12-11T14:20:18;99309.38;;;-4.12;92.68
74834;BME280;63361;52.384;20.930;2022-12-11T14:22:44;99355.47;;;-3.83;91.85
74834;BME280;63361;52.384;20.930;2022-12-11T14:25:25;99368.03;;;-3.85;92.65
74834;BME280;63361;52.384;20.930;2022-12-11T14:27:53;99368.47;;;-3.88;93.31
74834;BME280;63361;52.384;20.930;2022-12-11T14:30:20;99349.41;;;-3.90;92.46
74834;BME280;63361;52.384;20.930;2022-12-11T14:32:47;99347.19;;;-3.93;92.74
74834;BME280;63361;52.384;20.930;2022-12-11T14:35:34;99356.69;;;-3.85;93.41